createdAt,value
2022-09-03T00:00:54.516Z,99.90
2022-09-03T00:05:19.472Z,99.90
2022-09-03T00:09:27.352Z,99.90
2022-09-03T00:14:03.319Z,99.90
2022-09-03T00:18:12.695Z,99.90
2022-09-03T00:22:21.091Z,99.90
2022-09-03T00:26:30.946Z,99.90
2022-09-03T00:30:31.161Z,99.90
2022-09-03T00:34:43.810Z,99.90
2022-09-03T00:38:41.059Z,99.90
2022-09-03T00:43:02.076Z,99.90
2022-09-03T00:48:08.849Z,99.90
2022-09-03T00:52:36.782Z,99.90
2022-09-03T00:57:31.479Z,99.90
2022-09-03T01:01:55.775Z,99.90
2022-09-03T01:06:22.964Z,99.90
2022-09-03T01:11:10.652Z,99.90
2022-09-03T01:15:29.964Z,99.90
2022-09-03T01:20:12.566Z,99.90
2022-09-03T01:24:51.615Z,99.90
2022-09-03T01:29:05.698Z,99.90
2022-09-03T01:33:22.301Z,99.90
2022-09-03T01:37:38.362Z,99.90
2022-09-03T01:42:23.856Z,99.90
2022-09-03T01:46:38.650Z,99.90
2022-09-03T01:51:04.353Z,99.90
2022-09-03T01:55:13.400Z,99.90
2022-09-03T01:59:33.221Z,99.90
2022-09-03T02:03:41.254Z,99.90
2022-09-03T02:07:49.113Z,99.90
2022-09-03T02:11:56.105Z,99.90
2022-09-03T02:15:58.039Z,99.90
2022-09-03T02:19:55.565Z,99.90
2022-09-03T02:23:53.174Z,99.90
2022-09-03T02:27:51.376Z,99.90
2022-09-03T02:31:48.634Z,99.90
2022-09-03T02:35:46.555Z,99.90
2022-09-03T02:39:43.959Z,99.90
2022-09-03T02:43:59.129Z,99.90
2022-09-03T02:48:00.437Z,99.90
2022-09-03T02:52:06.967Z,99.90
2022-09-03T02:56:03.964Z,99.90
2022-09-03T03:00:00.967Z,99.90
2022-09-03T03:03:58.242Z,99.90
2022-09-03T03:07:56.279Z,99.90
2022-09-03T03:11:55.642Z,99.90
2022-09-03T03:15:56.444Z,99.90
2022-09-03T03:19:53.533Z,99.90
2022-09-03T03:23:50.598Z,99.90
2022-09-03T03:27:47.655Z,99.90
2022-09-03T03:31:44.999Z,99.90
2022-09-03T03:35:42.804Z,99.90
2022-09-03T03:39:39.894Z,99.90
2022-09-03T03:43:36.956Z,99.90
2022-09-03T03:47:34.648Z,99.90
2022-09-03T03:51:32.815Z,99.90
2022-09-03T03:55:32.403Z,99.90
2022-09-03T03:59:32.216Z,99.90
2022-09-03T04:03:29.495Z,99.90
2022-09-03T04:07:27.107Z,99.90
2022-09-03T04:11:25.642Z,99.90
2022-09-03T04:15:22.666Z,99.90
2022-09-03T04:19:21.249Z,99.90
2022-09-03T04:23:18.266Z,99.90
2022-09-03T04:27:15.410Z,99.90
2022-09-03T04:31:15.372Z,99.90
2022-09-03T04:35:12.466Z,99.90
2022-09-03T04:39:09.426Z,99.90
2022-09-03T04:43:06.623Z,99.90
2022-09-03T04:47:03.923Z,99.90
2022-09-03T04:51:11.014Z,99.90
2022-09-03T04:55:10.358Z,99.90
2022-09-03T04:59:09.665Z,99.90
2022-09-03T05:03:06.695Z,99.90
2022-09-03T05:07:03.781Z,99.90
2022-09-03T05:11:01.589Z,99.90
2022-09-03T05:14:59.913Z,99.90
2022-09-03T05:18:59.856Z,99.90
2022-09-03T05:22:57.883Z,99.90
2022-09-03T05:26:55.535Z,99.90
2022-09-03T05:31:05.715Z,99.90
2022-09-03T05:35:02.986Z,99.90
2022-09-03T05:39:00.514Z,99.90
2022-09-03T05:42:59.109Z,99.90
2022-09-03T05:46:56.113Z,99.90
2022-09-03T05:51:20.075Z,99.90
2022-09-03T05:55:18.570Z,99.90
2022-09-03T05:59:17.337Z,99.90
2022-09-03T06:03:14.447Z,99.90
2022-09-03T06:07:11.479Z,99.90
2022-09-03T06:11:09.503Z,99.90
2022-09-03T06:15:07.127Z,99.90
2022-09-03T06:19:09.870Z,99.90
2022-09-03T06:23:06.876Z,99.90
2022-09-03T06:27:04.158Z,99.90
2022-09-03T06:31:03.943Z,99.90
2022-09-03T06:35:00.898Z,99.90
2022-09-03T06:38:58.613Z,99.90
2022-09-03T06:43:02.647Z,99.90
2022-09-03T06:47:01.585Z,99.90
2022-09-03T06:51:02.367Z,99.90
2022-09-03T06:54:59.312Z,99.90
2022-09-03T06:58:59.606Z,99.90
2022-09-03T07:02:59.187Z,99.90
2022-09-03T07:06:56.264Z,99.90
2022-09-03T07:10:53.359Z,99.90
2022-09-03T07:14:51.219Z,99.90
2022-09-03T07:18:49.539Z,99.90
2022-09-03T07:22:46.515Z,99.90
2022-09-03T07:26:48.930Z,99.90
2022-09-03T07:30:46.109Z,99.90
2022-09-03T07:34:43.123Z,99.90
2022-09-03T07:38:41.757Z,99.90
2022-09-03T07:42:40.225Z,99.90
2022-09-03T07:46:39.295Z,99.90
2022-09-03T07:50:39.356Z,99.90
2022-09-03T07:54:36.399Z,99.90
2022-09-03T07:58:35.636Z,99.90
2022-09-03T08:02:33.705Z,99.90
2022-09-03T08:06:34.057Z,99.90
2022-09-03T08:10:35.454Z,99.90
2022-09-03T08:14:32.493Z,99.90
2022-09-03T08:18:32.106Z,99.90
2022-09-03T08:22:30.125Z,99.90
2022-09-03T08:26:27.167Z,99.90
2022-09-03T08:30:25.408Z,99.90
2022-09-03T08:34:22.698Z,99.90
2022-09-03T08:38:19.678Z,99.90
2022-09-03T08:42:37.876Z,99.90
2022-09-03T08:47:02.215Z,99.90
2022-09-03T08:51:04.782Z,99.90
2022-09-03T08:55:27.274Z,99.90
2022-09-03T08:59:27.076Z,99.90
2022-09-03T09:04:10.702Z,99.90
2022-09-03T09:08:31.866Z,99.90
2022-09-03T09:13:45.040Z,99.90
2022-09-03T09:18:14.647Z,99.90
2022-09-03T09:22:40.851Z,99.90
2022-09-03T09:26:41.859Z,99.90
2022-09-03T09:30:38.994Z,99.90
2022-09-03T09:34:41.435Z,99.90
2022-09-03T09:38:40.088Z,99.90
2022-09-03T09:42:37.031Z,99.90
2022-09-03T09:46:41.198Z,99.90
2022-09-03T09:50:38.387Z,99.90
2022-09-03T09:54:35.675Z,99.50
2022-09-03T09:58:35.138Z,98.00
2022-09-03T10:02:36.737Z,97.80
2022-09-03T10:06:53.852Z,98.10
2022-09-03T10:10:52.045Z,98.80
2022-09-03T10:15:25.390Z,98.30
2022-09-03T10:19:44.357Z,97.90
2022-09-03T10:24:25.913Z,96.80
2022-09-03T10:28:28.463Z,94.80
2022-09-03T10:33:08.334Z,95.20
2022-09-03T10:37:39.000Z,95.20
2022-09-03T10:41:59.987Z,93.70
2022-09-03T10:46:19.514Z,94.60
2022-09-03T10:50:34.807Z,94.70
2022-09-03T10:54:57.537Z,94.70
2022-09-03T10:59:18.900Z,92.70
2022-09-03T11:03:57.527Z,88.90
2022-09-03T11:08:07.332Z,80.90
2022-09-03T11:12:22.348Z,80.40
2022-09-03T11:16:34.217Z,80.20
2022-09-03T11:20:33.104Z,80.40
2022-09-03T11:24:33.931Z,80.50
2022-09-03T11:29:06.045Z,78.70
2022-09-03T11:33:10.520Z,80.80
2022-09-03T11:37:30.488Z,78.30
2022-09-03T11:41:35.861Z,76.80
2022-09-03T11:45:32.790Z,76.40
2022-09-03T11:49:35.642Z,73.80
2022-09-03T11:53:36.910Z,71.40
2022-09-03T11:57:43.789Z,72.40
2022-09-03T12:02:09.927Z,71.80
2022-09-03T12:06:42.863Z,77.00
2022-09-03T12:11:05.726Z,76.00
2022-09-03T12:15:45.964Z,72.90
2022-09-03T12:19:54.692Z,68.60
2022-09-03T12:23:58.479Z,66.80
2022-09-03T12:27:55.632Z,67.00
2022-09-03T12:31:54.756Z,67.20
2022-09-03T12:36:00.850Z,70.50
2022-09-03T12:40:07.631Z,74.60
2022-09-03T12:44:05.624Z,77.70
2022-09-03T12:48:16.731Z,79.30
2022-09-03T12:52:36.289Z,79.30
2022-09-03T12:56:34.954Z,81.70
2022-09-03T13:00:36.395Z,83.50
2022-09-03T13:04:37.697Z,84.10
2022-09-03T13:08:45.285Z,85.40
2022-09-03T13:12:53.382Z,83.50
2022-09-03T13:17:07.017Z,82.60
2022-09-03T13:21:37.257Z,82.50
2022-09-03T13:26:06.166Z,83.70
2022-09-03T13:30:38.182Z,85.10
2022-09-03T13:34:46.343Z,85.10
2022-09-03T13:39:06.495Z,87.00
2022-09-03T13:43:40.293Z,86.60
2022-09-03T13:48:17.116Z,87.40
2022-09-03T13:52:26.733Z,87.70
2022-09-03T13:57:02.975Z,87.30
2022-09-03T14:01:01.312Z,88.70
2022-09-03T14:04:58.303Z,88.10
2022-09-03T14:09:31.236Z,89.30
2022-09-03T14:14:00.994Z,90.50
2022-09-03T14:18:42.100Z,91.50
2022-09-03T14:23:00.397Z,92.30
2022-09-03T14:27:03.421Z,91.80
2022-09-03T14:31:28.650Z,93.50
2022-09-03T14:35:40.546Z,94.80
2022-09-03T14:40:06.081Z,95.70
2022-09-03T14:44:20.958Z,98.80
2022-09-03T14:49:09.687Z,99.90
2022-09-03T14:53:29.569Z,99.90
2022-09-03T14:58:17.746Z,99.90
2022-09-03T15:03:11.869Z,99.90
2022-09-03T15:07:37.157Z,99.90
2022-09-03T15:11:48.412Z,99.90
2022-09-03T15:16:19.400Z,99.90
2022-09-03T15:20:53.762Z,99.90
2022-09-03T15:25:26.381Z,99.90
2022-09-03T15:29:47.212Z,99.90
2022-09-03T15:34:12.693Z,99.90
2022-09-03T15:38:28.938Z,99.90
2022-09-03T15:42:29.128Z,99.90
2022-09-03T15:46:51.945Z,99.90
2022-09-03T15:51:20.905Z,99.90
2022-09-03T15:55:41.029Z,99.90
2022-09-03T16:00:12.857Z,99.90
2022-09-03T16:04:14.490Z,99.90
2022-09-03T16:08:41.856Z,99.90
2022-09-03T16:13:19.618Z,99.90
2022-09-03T16:17:39.352Z,99.90
2022-09-03T16:22:08.096Z,99.90
2022-09-03T16:26:19.100Z,99.90
2022-09-03T16:30:45.059Z,99.90
2022-09-03T16:35:03.296Z,99.90
2022-09-03T16:39:35.859Z,99.90
2022-09-03T16:44:20.049Z,99.90
2022-09-03T16:48:50.226Z,99.90
2022-09-03T16:53:05.866Z,99.90
2022-09-03T16:57:28.674Z,99.90
2022-09-03T17:02:36.980Z,99.90
2022-09-03T17:06:51.497Z,99.90
2022-09-03T17:11:46.002Z,99.90
2022-09-03T17:16:25.027Z,99.90
2022-09-03T17:20:38.528Z,99.90
2022-09-03T17:24:53.047Z,99.90
2022-09-03T17:29:09.864Z,99.90
2022-09-03T17:34:17.761Z,99.90
2022-09-03T17:39:12.111Z,99.90
2022-09-03T17:43:54.133Z,99.90
2022-09-03T17:48:41.228Z,99.90
2022-09-03T17:52:55.732Z,99.90
2022-09-03T17:57:16.078Z,99.90
2022-09-03T18:01:22.058Z,99.90
2022-09-03T18:05:32.981Z,99.90
2022-09-03T18:09:50.292Z,99.90
2022-09-03T18:14:09.389Z,99.90
2022-09-03T18:18:26.198Z,99.90
2022-09-03T18:22:50.766Z,99.90
2022-09-03T18:27:51.236Z,99.90
2022-09-03T18:32:06.746Z,99.90
2022-09-03T18:36:24.147Z,99.90
2022-09-03T18:40:55.135Z,99.90
2022-09-03T18:45:48.359Z,99.90
2022-09-03T18:50:31.241Z,99.90
2022-09-03T18:55:08.723Z,99.90
2022-09-03T18:59:55.936Z,99.90
2022-09-03T19:04:27.956Z,99.90
2022-09-03T19:08:57.088Z,99.90
2022-09-03T19:13:50.145Z,99.90
2022-09-03T19:18:28.828Z,99.90
2022-09-03T19:22:54.893Z,99.90
2022-09-03T19:27:54.316Z,99.90
2022-09-03T19:32:22.725Z,99.90
2022-09-03T19:37:18.272Z,99.90
2022-09-03T19:41:50.340Z,99.90
2022-09-03T19:46:18.930Z,99.90
2022-09-03T19:50:47.915Z,99.90
2022-09-03T19:55:08.987Z,99.90
2022-09-03T19:59:39.429Z,99.90
2022-09-03T20:03:55.667Z,99.90
2022-09-03T20:08:15.692Z,99.90
2022-09-03T20:12:17.428Z,99.90
2022-09-03T20:16:44.575Z,99.90
2022-09-03T20:20:41.905Z,99.90
2022-09-03T20:24:56.715Z,99.90
2022-09-03T20:29:50.260Z,99.90
2022-09-03T20:34:24.957Z,99.90
2022-09-03T20:38:53.864Z,99.90
2022-09-03T20:43:19.379Z,99.90
2022-09-03T20:48:02.560Z,99.90
2022-09-03T20:52:08.558Z,99.90
2022-09-03T20:56:37.483Z,99.90
2022-09-03T21:00:52.184Z,99.90
2022-09-03T21:05:19.220Z,99.90
2022-09-03T21:10:18.262Z,99.90
2022-09-03T21:15:20.132Z,99.90
2022-09-03T21:19:48.685Z,99.90
2022-09-03T21:23:55.650Z,99.90
2022-09-03T21:28:22.042Z,99.90
2022-09-03T21:33:09.447Z,99.90
2022-09-03T21:37:12.278Z,99.90
2022-09-03T21:41:29.399Z,99.90
2022-09-03T21:45:43.415Z,99.90
2022-09-03T21:50:17.219Z,99.90
2022-09-03T21:54:29.113Z,99.90
2022-09-03T21:58:45.508Z,99.90
2022-09-03T22:02:42.561Z,99.90
2022-09-03T22:06:50.645Z,99.90
2022-09-03T22:11:15.823Z,99.90
2022-09-03T22:15:14.927Z,99.90
2022-09-03T22:19:12.101Z,99.90
2022-09-03T22:23:26.808Z,99.90
2022-09-03T22:27:36.215Z,99.90
2022-09-03T22:32:11.627Z,99.90
2022-09-03T22:36:31.970Z,99.90
2022-09-03T22:40:34.521Z,99.90
2022-09-03T22:44:58.422Z,99.90
2022-09-03T22:49:14.124Z,99.90
2022-09-03T22:53:54.474Z,99.90
2022-09-03T22:58:11.930Z,99.90
2022-09-03T23:02:14.208Z,99.90
2022-09-03T23:06:38.615Z,99.90
2022-09-03T23:11:04.015Z,99.90
2022-09-03T23:15:06.915Z,99.90
2022-09-03T23:23:25.761Z,99.90
2022-09-03T23:27:34.692Z,99.90
2022-09-03T23:31:31.902Z,99.90
2022-09-03T23:35:43.980Z,99.90
2022-09-03T23:40:02.623Z,99.90
2022-09-03T23:44:47.605Z,99.90
2022-09-03T23:49:26.818Z,99.90
2022-09-03T23:53:39.123Z,99.90
2022-09-03T23:57:59.668Z,99.90
